Time;durP1;ratioP1;P1;durP2;ratioP2;P2;SDS_P1;SDS_P2;PMS_P1;PMS_P2;Temp;Humidity;BMP_temperature;BMP_pressure;BME280_temperature;BME280_humidity;BME280_pressure;Samples;Min_cycle;Max_cycle;Signal;HPM_P1;HPM_P2
2023/07/25 00:02:04;;;;;;;12.35;2.58;;;;;;;27.63;68.50;99595.19;5049400;28;20203;-74
2023/07/25 00:04:31;;;;;;;14.27;2.47;;;;;;;27.45;70.23;99593.69;5049759;28;20381;-74
2023/07/25 00:06:57;;;;;;;13.70;2.35;;;;;;;27.45;70.75;99583.88;5049667;28;20203;-74
2023/07/25 00:09:24;;;;;;;19.15;2.95;;;;;;;27.56;75.58;99601.84;5050124;28;20195;-73
2023/07/25 00:11:51;;;;;;;12.43;2.15;;;;;;;27.52;79.21;99595.88;5049558;28;20203;-74
2023/07/25 00:14:18;;;;;;;17.20;2.65;;;;;;;27.47;81.92;99597.09;5049958;28;20203;-75
2023/07/25 00:16:44;;;;;;;10.85;2.05;;;;;;;27.33;100.00;99583.72;5049565;28;20203;-74
2023/07/25 00:19:12;;;;;;;10.30;1.95;;;;;;;27.53;100.00;99600.25;5050259;28;20199;-74
2023/07/25 00:21:39;;;;;;;14.13;2.25;;;;;;;27.33;100.00;99600.56;5049528;28;20276;-74
2023/07/25 00:24:06;;;;;;;14.82;2.90;;;;;;;27.22;100.00;99581.72;5050989;28;20226;-75
2023/07/25 00:26:33;;;;;;;23.92;3.83;;;;;;;27.23;100.00;99585.25;5052842;28;20203;-74
2023/07/25 00:28:59;;;;;;;17.73;2.55;;;;;;;27.12;100.00;99575.25;5053035;28;20204;-75
2023/07/25 00:31:26;;;;;;;17.70;2.83;;;;;;;27.07;100.00;99580.88;5018062;28;20204;-74
2023/07/25 00:33:53;;;;;;;10.80;1.83;;;;;;;26.92;100.00;99560.50;5053228;28;20214;-73
2023/07/25 00:36:21;;;;;;;18.52;2.95;;;;;;;26.98;100.00;99565.47;5052928;28;20199;-73
2023/07/25 00:38:48;;;;;;;14.73;2.38;;;;;;;26.89;100.00;99563.38;5053128;28;20207;-73
2023/07/25 00:41:15;;;;;;;18.85;3.05;;;;;;;26.91;100.00;99580.09;5053064;28;20195;-74
2023/07/25 00:43:41;;;;;;;18.52;2.72;;;;;;;26.72;100.00;99534.19;5052812;28;20230;-74
2023/07/25 00:46:08;;;;;;;14.05;2.17;;;;;;;26.81;100.00;99570.91;5052862;28;20200;-74
2023/07/25 00:48:35;;;;;;;18.75;2.97;;;;;;;26.72;100.00;99552.00;5053040;28;20531;-74
2023/07/25 00:51:04;;;;;;;11.80;1.92;;;;;;;26.89;100.00;99568.69;5052030;28;20191;-74
2023/07/25 00:53:32;;;;;;;16.20;2.58;;;;;;;26.87;100.00;99561.72;5052776;28;20207;-74
2023/07/25 00:56:01;;;;;;;12.70;2.17;;;;;;;26.72;100.00;99558.13;5052568;28;20616;-74
2023/07/25 00:58:28;;;;;;;13.45;2.17;;;;;;;26.62;100.00;99541.88;5053090;28;20269;-75
2023/07/25 01:01:03;;;;;;;13.93;2.33;;;;;;;26.73;100.00;99559.84;5052436;28;20210;-73
2023/07/25 01:03:30;;;;;;;13.80;2.35;;;;;;;26.58;100.00;99558.97;5017979;28;20309;-75
2023/07/25 01:06:00;;;;;;;9.27;1.77;;;;;;;26.67;100.00;99560.22;5052456;28;21002;-74
2023/07/25 01:08:27;;;;;;;13.40;2.33;;;;;;;26.58;100.00;99558.97;5052890;28;20206;-74
2023/07/25 01:10:55;;;;;;;10.05;1.85;;;;;;;26.69;100.00;99544.16;5052686;28;20210;-74
2023/07/25 01:13:22;;;;;;;12.43;2.13;;;;;;;26.66;100.00;99545.22;5052880;28;20212;-74
2023/07/25 01:15:51;;;;;;;16.90;2.70;;;;;;;26.67;100.00;99554.06;5052527;28;20195;-74
2023/07/25 01:18:18;;;;;;;19.15;3.05;;;;;;;26.67;100.00;99546.94;5052417;28;20649;-74
2023/07/25 01:20:48;;;;;;;13.85;2.25;;;;;;;26.74;100.00;99532.31;5017169;28;20200;-74
2023/07/25 01:23:16;;;;;;;10.60;2.08;;;;;;;26.70;100.00;99530.78;5052170;28;20651;-75
2023/07/25 01:25:47;;;;;;;12.82;2.28;;;;;;;26.70;100.00;99548.53;5052305;28;20685;-74
2023/07/25 01:28:14;;;;;;;12.45;2.75;;;;;;;26.57;100.00;99548.44;5052037;28;20199;-75
2023/07/25 01:30:40;;;;;;;11.80;2.28;;;;;;;26.47;100.00;99540.13;5017222;28;20608;-74
2023/07/25 01:33:07;;;;;;;10.55;2.28;;;;;;;26.33;100.00;99540.06;5052634;28;20207;-74
2023/07/25 01:35:34;;;;;;;12.15;2.47;;;;;;;26.32;100.00;99534.84;5015768;28;20199;-74
2023/07/25 01:38:01;;;;;;;11.73;2.20;;;;;;;26.28;100.00;99543.94;5051626;28;20648;-74
2023/07/25 01:40:27;;;;;;;11.15;2.00;;;;;;;26.23;100.00;99535.38;5017442;28;20208;-74
2023/07/25 01:42:55;;;;;;;13.50;3.10;;;;;;;26.40;100.00;99560.03;5052088;28;20207;-73
2023/07/25 01:45:22;;;;;;;11.43;2.22;;;;;;;26.48;98.47;99563.09;5051794;28;20612;-74
2023/07/25 01:47:49;;;;;;;11.05;2.05;;;;;;;26.52;93.13;99556.66;5051667;28;20574;-74
2023/07/25 01:50:16;;;;;;;9.55;1.75;;;;;;;26.61;88.48;99553.44;5051779;28;20666;-75
2023/07/25 01:52:43;;;;;;;10.98;2.03;;;;;;;26.66;87.68;99552.31;5016628;28;20261;-73
2023/07/25 01:55:10;;;;;;;12.05;2.10;;;;;;;26.71;86.96;99537.81;5051437;28;20204;-74
2023/07/25 01:57:37;;;;;;;9.45;1.83;;;;;;;26.67;86.21;99532.78;5051754;28;20617;-73
2023/07/25 02:00:07;;;;;;;14.38;2.58;;;;;;;26.81;84.84;99533.66;5051876;28;20207;-74
2023/07/25 02:02:34;;;;;;;9.27;1.90;;;;;;;26.78;84.51;99533.84;5052370;28;20212;-75
2023/07/25 02:05:00;;;;;;;11.27;1.92;;;;;;;26.84;83.90;99537.97;5051530;28;20230;-74
2023/07/25 02:07:27;;;;;;;6.18;1.50;;;;;;;27.04;82.60;99538.47;5016498;28;20207;-75
2023/07/25 02:09:54;;;;;;;8.68;1.75;;;;;;;26.89;82.64;99538.56;5016046;28;20196;-72
2023/07/25 02:12:21;;;;;;;8.52;1.60;;;;;;;26.81;82.78;99515.03;5033767;28;20215;-72
2023/07/25 02:14:48;;;;;;;10.30;2.03;;;;;;;26.57;81.40;99471.31;5031202;28;20204;-72
2023/07/25 02:17:18;;;;;;;10.25;2.05;;;;;;;27.13;80.91;99537.06;5031203;28;20674;-72
2023/07/25 02:19:45;;;;;;;8.10;1.77;;;;;;;27.14;80.66;99553.88;5049794;28;20657;-72
2023/07/25 02:22:12;;;;;;;8.50;1.65;;;;;;;27.26;78.09;99550.44;5050694;28;20195;-72
2023/07/25 02:24:39;;;;;;;11.77;2.15;;;;;;;27.27;79.16;99560.16;5050992;28;20230;-73
2023/07/25 02:27:06;;;;;;;7.38;1.73;;;;;;;27.28;79.58;99556.56;5051084;28;20196;-74
2023/07/25 02:29:33;;;;;;;7.18;1.65;;;;;;;27.20;80.57;99556.16;5050793;28;20670;-74
2023/07/25 02:31:59;;;;;;;10.82;1.98;;;;;;;27.01;80.87;99533.34;5050692;28;20549;-74
2023/07/25 02:34:28;;;;;;;3.95;1.17;;;;;;;27.21;80.50;99558.75;5051245;28;20647;-74
2023/07/25 02:36:54;;;;;;;7.40;1.60;;;;;;;27.03;81.76;99541.22;5051337;28;20210;-73
2023/07/25 02:39:21;;;;;;;7.75;1.88;;;;;;;26.90;82.72;99537.59;5051175;28;20206;-74
2023/07/25 02:41:48;;;;;;;11.75;2.10;;;;;;;26.87;82.42;99533.31;5051028;28;20195;-74
2023/07/25 02:44:15;;;;;;;9.90;1.92;;;;;;;26.84;83.51;99537.97;5051044;28;20280;-74
2023/07/25 02:46:41;;;;;;;8.95;2.30;;;;;;;26.73;83.04;99513.78;5050862;28;20204;-74
2023/07/25 02:49:08;;;;;;;7.97;1.73;;;;;;;26.61;83.97;99526.03;5050726;28;20207;-74
2023/07/25 02:51:36;;;;;;;7.57;1.67;;;;;;;26.89;84.26;99544.75;5051135;28;20203;-74
2023/07/25 02:54:03;;;;;;;8.15;1.65;;;;;;;26.77;84.12;99540.09;5015497;28;20206;-74
2023/07/25 02:56:30;;;;;;;8.80;1.77;;;;;;;26.82;83.00;99538.06;5050901;28;20203;-73
2023/07/25 02:58:57;;;;;;;10.15;1.90;;;;;;;26.80;82.01;99537.25;5050557;28;20245;-74
2023/07/25 03:01:24;;;;;;;10.90;2.03;;;;;;;26.83;81.69;99538.91;5050921;28;20264;-74
2023/07/25 03:03:50;;;;;;;11.20;2.33;;;;;;;26.73;81.44;99505.78;5050952;28;20207;-74
2023/07/25 03:06:17;;;;;;;10.27;1.98;;;;;;;26.82;80.66;99511.47;5050420;28;20257;-72
2023/07/25 03:08:45;;;;;;;8.98;1.77;;;;;;;27.02;84.67;99542.19;5050196;28;20199;-73
2023/07/25 03:11:12;;;;;;;10.18;1.92;;;;;;;26.95;86.71;99557.66;5015231;28;20195;-73
2023/07/25 03:13:39;;;;;;;10.70;2.17;;;;;;;26.83;87.95;99530.91;5050769;28;20235;-73
2023/07/25 03:16:06;;;;;;;11.98;2.17;;;;;;;26.88;87.74;99540.34;5050613;28;20211;-74
2023/07/25 03:18:33;;;;;;;9.27;1.75;;;;;;;26.83;87.31;99537.09;5049948;28;20710;-72
2023/07/25 03:20:59;;;;;;;10.88;1.95;;;;;;;26.86;87.23;99536.09;5050091;28;20191;-73
2023/07/25 03:23:26;;;;;;;10.65;1.92;;;;;;;26.76;88.50;99509.13;5050131;28;20214;-75
2023/07/25 03:25:54;;;;;;;8.98;1.75;;;;;;;27.03;89.24;99512.81;5050534;28;20223;-73
2023/07/25 03:28:21;;;;;;;8.75;1.70;;;;;;;27.04;88.78;99514.50;5049905;28;20199;-73
2023/07/25 03:30:48;;;;;;;7.97;1.63;;;;;;;27.13;85.53;99518.41;5050094;28;20204;-74
2023/07/25 03:33:14;;;;;;;12.02;2.10;;;;;;;27.21;82.82;99520.63;5050208;28;20280;-73
2023/07/25 03:35:42;;;;;;;7.28;1.50;;;;;;;27.26;83.72;99510.50;5050157;28;20834;-74
2023/07/25 03:38:08;;;;;;;10.00;1.90;;;;;;;27.29;83.82;99503.19;5049942;28;20223;-74
2023/07/25 03:40:35;;;;;;;7.03;1.60;;;;;;;27.49;86.79;99510.84;5011709;28;20274;-73
2023/07/25 03:43:03;;;;;;;8.38;1.70;;;;;;;27.51;92.40;99516.91;5030584;28;20192;-74
2023/07/25 03:45:30;;;;;;;6.10;1.50;;;;;;;27.55;92.13;99520.22;5030049;28;20722;-74
2023/07/25 03:47:57;;;;;;;8.55;1.92;;;;;;;27.36;92.76;99477.06;5030712;28;20211;-76
2023/07/25 03:50:24;;;;;;;11.88;2.08;;;;;;;27.85;92.83;99507.63;5041420;28;20192;-73
2023/07/25 03:52:50;;;;;;;9.18;1.73;;;;;;;28.10;87.34;99511.38;5049969;28;20203;-73
2023/07/25 03:55:17;;;;;;;16.08;2.60;;;;;;;28.28;85.91;99519.00;5015319;28;20248;-73
2023/07/25 03:57:44;;;;;;;9.07;1.70;;;;;;;28.64;83.94;99513.00;5049788;28;20297;-73
2023/07/25 04:00:14;;;;;;;9.23;1.80;;;;;;;29.01;82.31;99514.88;5053323;28;20206;-73
2023/07/25 04:02:40;;;;;;;8.07;2.10;;;;;;;28.92;86.12;99512.00;5054102;28;20210;-73
2023/07/25 04:05:09;;;;;;;7.85;1.80;;;;;;;29.31;81.97;99513.72;5054178;28;20237;-73
2023/07/25 04:07:36;;;;;;;7.22;1.42;;;;;;;29.49;81.42;99502.56;5054259;28;20209;-73
2023/07/25 04:10:03;;;;;;;8.57;1.70;;;;;;;29.74;82.56;99504.31;5018660;28;20682;-72
2023/07/25 04:12:30;;;;;;;8.02;1.70;;;;;;;30.15;78.48;99511.97;5054171;28;20210;-73
2023/07/25 04:14:56;;;;;;;9.18;2.30;;;;;;;30.25;74.54;99485.41;5054163;28;20199;-74
2023/07/25 04:17:25;;;;;;;6.07;1.55;;;;;;;30.32;65.95;99511.56;5053708;28;20203;-73
2023/07/25 04:19:51;;;;;;;11.77;2.70;;;;;;;30.42;64.81;99495.72;5018407;28;20646;-73
2023/07/25 04:22:18;;;;;;;7.70;1.65;;;;;;;30.60;61.35;99509.53;5053519;28;20548;-74
2023/07/25 04:24:45;;;;;;;8.63;1.98;;;;;;;30.74;60.60;99518.22;5018392;28;20602;-73
2023/07/25 04:27:12;;;;;;;10.13;2.03;;;;;;;31.02;58.92;99521.44;5053859;28;20226;-74
2023/07/25 04:29:38;;;;;;;6.05;1.50;;;;;;;31.21;56.72;99521.72;5053392;28;20199;-74
2023/07/25 04:32:06;;;;;;;10.77;1.98;;;;;;;31.36;55.49;99520.47;5053407;28;20202;-74
2023/07/25 04:34:34;;;;;;;12.40;2.10;;;;;;;31.73;55.00;99527.31;4986105;28;20683;-74
2023/07/25 04:37:01;;;;;;;7.07;1.60;;;;;;;31.95;53.92;99526.44;5031228;28;20200;-74
2023/07/25 04:39:28;;;;;;;8.02;1.70;;;;;;;32.21;53.48;99510.91;5036817;28;20203;-78
2023/07/25 04:41:55;;;;;;;9.32;1.83;;;;;;;32.83;51.28;99509.13;5054776;28;20199;-74
2023/07/25 04:44:21;;;;;;;13.98;1.98;;;;;;;33.38;50.39;99528.56;5017394;28;20202;-76
2023/07/25 04:46:48;;;;;;;8.93;1.60;;;;;;;33.22;49.76;99525.50;5013977;28;20554;-81
2023/07/25 04:49:16;;;;;;;19.60;2.28;;;;;;;33.22;48.41;99515.59;5016739;28;20291;-80
2023/07/25 04:51:44;;;;;;;21.10;2.35;;;;;;;33.74;47.44;99516.41;5053529;28;20662;-80
2023/07/25 04:54:11;;;;;;;24.17;2.63;;;;;;;31.99;50.53;99506.44;5052336;28;20195;-80
2023/07/25 04:56:40;;;;;;;18.45;2.15;;;;;;;31.91;50.24;99504.38;5050218;28;20203;-83
2023/07/25 04:59:06;;;;;;;28.98;3.03;;;;;;;31.85;52.06;99494.16;5052958;28;20226;-75
2023/07/25 05:01:33;;;;;;;26.88;2.80;;;;;;;32.31;50.26;99487.69;5049912;28;20207;-75
2023/07/25 05:04:00;;;;;;;23.15;2.58;;;;;;;32.23;50.97;99485.63;5053675;28;20763;-72
2023/07/25 05:06:27;;;;;;;29.38;3.17;;;;;;;32.36;50.07;99485.44;5041988;28;20230;-72
2023/07/25 05:08:55;;;;;;;32.47;3.15;;;;;;;32.62;49.11;99484.13;5050735;28;20211;-76
2023/07/25 05:11:22;;;;;;;30.33;3.25;;;;;;;32.32;50.50;99473.28;5053093;28;20665;-77
2023/07/25 05:13:48;;;;;;;25.77;2.85;;;;;;;32.56;49.80;99473.88;5052516;28;20203;-73
2023/07/25 05:16:16;;;;;;;27.80;2.97;;;;;;;33.10;47.89;99483.56;5052749;28;20222;-74
2023/07/25 05:18:42;;;;;;;34.90;3.75;;;;;;;33.42;47.34;99494.19;5051889;28;20215;-75
2023/07/25 05:21:09;;;;;;;27.33;2.90;;;;;;;33.70;46.73;99494.31;5050644;28;20241;-75
2023/07/25 05:23:36;;;;;;;17.65;2.10;;;;;;;33.24;47.46;99497.53;5033481;28;20206;-74
2023/07/25 05:26:04;;;;;;;32.00;3.20;;;;;;;33.24;47.03;99502.03;5051875;28;20231;-74
2023/07/25 05:28:31;;;;;;;27.63;3.13;;;;;;;33.19;46.61;99499.75;5051034;28;20207;-72
2023/07/25 05:30:57;;;;;;;33.92;3.50;;;;;;;33.52;46.30;99495.91;5052023;28;20256;-74
2023/07/25 05:33:24;;;;;;;38.22;3.70;;;;;;;33.89;46.20;99502.41;5052033;28;20199;-74
2023/07/25 05:36:00;;;;;;;21.88;2.42;;;;;;;34.07;45.42;99502.56;5050870;28;20206;-73
2023/07/25 05:38:26;;;;;;;32.42;3.33;;;;;;;34.43;44.59;99492.13;5052034;28;20218;-75
2023/07/25 05:40:54;;;;;;;40.15;3.90;;;;;;;34.75;44.05;99471.97;5049639;28;20206;-73
2023/07/25 05:43:22;;;;;;;30.13;3.10;;;;;;;35.19;42.45;99499.25;5048458;28;20203;-75
2023/07/25 05:45:49;;;;;;;27.15;3.10;;;;;;;35.53;42.15;99505.78;5040435;28;20241;-75
2023/07/25 05:48:15;;;;;;;31.02;3.22;;;;;;;35.33;41.65;99514.97;4999150;28;20196;-74
2023/07/25 05:50:42;;;;;;;38.35;3.80;;;;;;;35.14;47.01;99521.25;5033088;28;20687;-74
2023/07/25 05:53:09;;;;;;;36.53;3.58;;;;;;;34.68;49.27;99502.31;5038983;28;20203;-75
2023/07/25 05:55:36;;;;;;;45.95;4.38;;;;;;;34.53;49.39;99510.00;5049584;28;20214;-75
2023/07/25 05:58:02;;;;;;;33.30;3.38;;;;;;;34.12;50.04;99521.00;5048950;28;20223;-76
2023/07/25 06:00:30;;;;;;;35.10;3.60;;;;;;;34.48;50.68;99511.41;5045832;28;20309;-70
2023/07/25 06:02:57;;;;;;;40.75;3.85;;;;;;;34.73;50.31;99514.38;5049697;28;20257;-72
2023/07/25 06:05:24;;;;;;;36.28;3.67;;;;;;;34.46;50.34;99508.84;5051423;28;20238;-73
2023/07/25 06:07:51;;;;;;;34.72;3.42;;;;;;;33.95;49.61;99500.16;5051181;28;20202;-72
2023/07/25 06:10:17;;;;;;;31.13;3.13;;;;;;;34.11;49.64;99506.69;5051397;28;20207;-72
2023/07/25 06:12:44;;;;;;;41.28;3.90;;;;;;;34.41;48.33;99489.59;5048487;28;20249;-72
2023/07/25 06:15:11;;;;;;;37.80;3.63;;;;;;;34.88;49.32;99487.00;5007543;28;20214;-71
2023/07/25 06:17:39;;;;;;;33.20;3.38;;;;;;;34.87;49.39;99480.75;5044662;28;20261;-71
2023/07/25 06:20:07;;;;;;;30.52;3.15;;;;;;;34.60;48.63;99459.94;5042084;28;20206;-71
2023/07/25 06:22:37;;;;;;;35.15;3.47;;;;;;;34.50;50.06;99459.09;5003921;28;20219;-71
2023/07/25 06:25:04;;;;;;;38.60;4.00;;;;;;;34.50;51.93;99451.00;5046205;28;20233;-72
2023/07/25 06:27:31;;;;;;;51.75;4.97;;;;;;;34.49;50.07;99446.63;5032388;28;20207;-72
2023/07/25 06:29:58;;;;;;;39.90;4.05;;;;;;;34.40;50.62;99457.41;5034472;28;20265;-72
2023/07/25 06:32:24;;;;;;;39.58;3.95;;;;;;;34.25;51.83;99428.22;4996842;28;20195;-72
2023/07/25 06:34:53;;;;;;;44.92;4.43;;;;;;;34.30;51.90;99414.34;5008670;28;20203;-72
2023/07/25 06:37:19;;;;;;;38.83;3.92;;;;;;;34.19;51.44;99441.41;5048844;28;20199;-72
2023/07/25 06:39:46;;;;;;;41.28;4.13;;;;;;;34.05;51.88;99439.13;5046129;28;20211;-72
2023/07/25 06:42:13;;;;;;;38.50;3.80;;;;;;;33.66;51.45;99441.78;5044823;28;20573;-72
2023/07/25 06:44:40;;;;;;;38.42;3.75;;;;;;;33.75;51.58;99443.63;5043212;28;20320;-72
2023/07/25 06:47:05;;;;;;;34.47;3.53;;;;;;;34.00;51.07;99436.84;5040277;28;20285;-73
2023/07/25 06:49:32;;;;;;;33.10;3.42;;;;;;;34.04;50.40;99435.56;5039757;28;20200;-72
2023/07/25 06:52:01;;;;;;;30.52;3.33;;;;;;;33.84;50.46;99434.72;5035791;28;20233;-71
2023/07/25 06:54:28;;;;;;;33.70;3.33;;;;;;;33.87;50.07;99431.75;5036303;28;20295;-71
2023/07/25 06:56:54;;;;;;;52.03;4.80;;;;;;;34.15;50.20;99440.84;5044125;28;20234;-72
2023/07/25 06:59:21;;;;;;;28.95;3.00;;;;;;;34.17;50.12;99429.94;5032929;28;20229;-72
2023/07/25 07:01:48;;;;;;;40.58;4.97;;;;;;;34.00;50.47;99425.25;5042011;28;20244;-73
2023/07/25 07:04:14;;;;;;;40.35;3.95;;;;;;;34.28;51.86;99421.72;5047107;28;20264;-68
2023/07/25 07:10:01;;;;;;;17.83;2.55;;;;;;;33.54;53.00;99434.78;5079166;27;20544;-68
2023/07/25 07:12:27;;;;;;;17.70;2.70;;;;;;;33.29;53.81;99433.44;5078811;28;20202;-67
2023/07/25 07:14:54;;;;;;;16.33;2.58;;;;;;;33.51;54.64;99429.69;5068489;28;20271;-67
2023/07/25 07:17:21;;;;;;;17.70;2.63;;;;;;;33.67;54.78;99419.28;5030713;28;20210;-67
2023/07/25 07:19:48;;;;;;;21.42;2.78;;;;;;;33.98;54.74;99429.91;5070009;28;20237;-67
2023/07/25 07:22:15;;;;;;;14.68;2.33;;;;;;;34.39;54.44;99416.16;5071899;28;20206;-68
2023/07/25 07:24:42;;;;;;;18.92;2.80;;;;;;;34.28;55.08;99405.56;5072359;28;20206;-66
2023/07/25 07:27:10;;;;;;;15.38;2.65;;;;;;;34.63;54.28;99418.44;5067405;28;20657;-68
2023/07/25 07:29:36;;;;;;;24.98;3.30;;;;;;;34.60;55.50;99424.09;5067351;28;20201;-67
2023/07/25 07:32:04;;;;;;;15.48;2.47;;;;;;;34.64;54.50;99420.97;5067190;28;20202;-68
2023/07/25 07:34:31;;;;;;;16.83;2.58;;;;;;;34.83;52.57;99414.66;5030191;28;20214;-69
2023/07/25 07:36:58;;;;;;;15.90;2.40;;;;;;;34.94;50.06;99411.78;5067405;28;20207;-69
2023/07/25 07:39:25;;;;;;;16.83;2.65;;;;;;;35.14;51.67;99418.00;5066215;28;20222;-68
2023/07/25 07:41:51;;;;;;;17.08;2.50;;;;;;;35.10;51.45;99412.03;5044836;28;20209;-68
2023/07/25 07:44:19;;;;;;;14.05;2.22;;;;;;;35.35;50.44;99405.13;5076420;28;20208;-75
2023/07/25 07:46:46;;;;;;;25.25;3.33;;;;;;;35.57;48.58;99409.22;5066705;28;20222;-74
2023/07/25 07:49:13;;;;;;;18.20;2.63;;;;;;;35.72;48.50;99411.28;5031929;28;20210;-74
2023/07/25 07:51:40;;;;;;;11.85;2.13;;;;;;;35.80;49.63;99414.06;5067253;28;20281;-71
2023/07/25 07:54:06;;;;;;;11.20;2.03;;;;;;;35.96;47.60;99396.34;5048521;28;20201;-71
2023/07/25 07:56:33;;;;;;;17.42;2.50;;;;;;;35.70;45.55;99402.50;5067435;28;20263;-69
2023/07/25 07:59:00;;;;;;;6.57;1.33;;;;;;;35.60;45.65;99377.41;5064644;28;20291;-70
2023/07/25 08:01:28;;;;;;;10.85;2.25;;;;;;;36.14;46.54;99394.47;5067379;28;20264;-69
2023/07/25 08:03:55;;;;;;;36.90;3.55;;;;;;;36.28;44.41;99399.34;5066723;28;20320;-70
2023/07/25 08:06:22;;;;;;;33.00;3.58;;;;;;;36.12;43.36;99394.63;5067005;28;20195;-69
2023/07/25 08:08:48;;;;;;;28.25;2.92;;;;;;;36.36;40.80;99402.06;5066730;28;20234;-70
2023/07/25 08:11:15;;;;;;;27.30;3.13;;;;;;;36.78;41.22;99394.09;5066996;28;20213;-70
2023/07/25 08:13:42;;;;;;;31.10;3.20;;;;;;;36.91;40.59;99393.66;5066725;28;20206;-70
2023/07/25 08:16:09;;;;;;;27.23;2.90;;;;;;;37.11;40.53;99387.88;5064295;28;20199;-71
2023/07/25 08:18:37;;;;;;;30.38;3.05;;;;;;;37.49;39.32;99394.66;5065955;28;21283;-71
2023/07/25 08:21:04;;;;;;;26.08;2.85;;;;;;;37.34;37.19;99371.91;5052463;28;20191;-71
2023/07/25 08:23:30;;;;;;;24.77;2.72;;;;;;;37.49;38.54;99377.56;5052904;28;20191;-70
2023/07/25 08:25:58;;;;;;;30.77;3.28;;;;;;;37.22;36.55;99379.47;5052788;28;20291;-70
2023/07/25 08:28:25;;;;;;;27.55;2.92;;;;;;;37.58;36.86;99369.28;5052742;28;20528;-70
2023/07/25 08:30:59;;;;;;;24.63;3.08;;;;;;;38.03;34.88;99373.44;5053247;28;20228;-70
2023/07/25 08:33:26;;;;;;;24.60;3.53;;;;;;;38.14;36.08;99362.22;5053336;28;20234;-72
2023/07/25 08:35:55;;;;;;;25.88;3.50;;;;;;;38.24;35.60;99354.78;5052968;28;20617;-72
2023/07/25 08:38:21;;;;;;;24.58;3.00;;;;;;;38.31;34.60;99371.22;5034546;28;20314;-72
2023/07/25 08:40:56;;;;;;;19.02;2.28;;;;;;;38.51;34.00;99370.69;5052891;28;20731;-71
2023/07/25 08:43:25;;;;;;;21.20;2.47;;;;;;;38.38;31.82;99370.38;5053302;28;20344;-71
2023/07/25 08:45:53;;;;;;;25.08;2.83;;;;;;;38.40;34.65;99362.06;5017868;28;20615;-71
2023/07/25 08:48:22;;;;;;;28.80;3.00;;;;;;;38.64;33.36;99349.31;5053038;28;20206;-71
2023/07/25 08:50:52;;;;;;;14.73;1.92;;;;;;;38.62;33.58;99364.06;5051288;28;20214;-72
2023/07/25 08:53:23;;;;;;;29.00;3.30;;;;;;;38.43;33.93;99353.59;5052964;28;20252;-72
2023/07/25 08:55:50;;;;;;;26.83;2.75;;;;;;;37.96;32.79;99357.00;5052396;28;20202;-72
2023/07/25 08:58:17;;;;;;;28.45;3.00;;;;;;;38.09;34.27;99345.66;5052342;28;20195;-72
2023/07/25 09:00:45;;;;;;;15.93;1.88;;;;;;;38.32;35.40;99362.03;5052503;28;20217;-72
2023/07/25 09:03:12;;;;;;;30.77;3.10;;;;;;;38.21;34.41;99360.53;5052431;28;20654;-72
2023/07/25 09:05:40;;;;;;;19.92;2.40;;;;;;;38.42;33.63;99358.16;5052480;28;20230;-72
2023/07/25 09:08:06;;;;;;;16.10;2.20;;;;;;;38.40;32.88;99349.38;5052441;28;20235;-72
2023/07/25 09:10:35;;;;;;;21.67;2.50;;;;;;;38.23;33.62;99358.50;5052535;28;20199;-73
2023/07/25 09:13:02;;;;;;;15.13;2.03;;;;;;;38.14;34.04;99354.97;5052435;28;20199;-73
2023/07/25 09:15:29;;;;;;;15.27;1.88;;;;;;;38.33;33.33;99347.50;5052082;28;20199;-72
2023/07/25 09:17:55;;;;;;;33.00;3.88;;;;;;;38.32;35.07;99360.19;5052064;28;20206;-72
2023/07/25 09:20:22;;;;;;;22.95;2.45;;;;;;;38.32;36.82;99359.34;5050626;28;20238;-72
2023/07/25 09:22:49;;;;;;;17.95;2.15;;;;;;;38.19;38.20;99332.78;5033053;28;20198;-71
2023/07/25 09:25:16;;;;;;;23.60;2.72;;;;;;;37.86;38.54;99322.94;5071936;28;20198;-71
2023/07/25 09:27:46;;;;;;;23.05;2.75;;;;;;;38.01;39.14;99348.38;5071831;28;20206;-70
2023/07/25 09:30:14;;;;;;;34.03;3.28;;;;;;;38.04;38.44;99361.56;5053333;28;20198;-71
2023/07/25 09:32:46;;;;;;;24.42;2.70;;;;;;;38.30;37.48;99340.56;5070592;28;20684;-71
2023/07/25 09:35:13;;;;;;;30.75;3.13;;;;;;;38.23;38.72;99342.25;5071629;28;20289;-72
2023/07/25 09:37:40;;;;;;;35.50;3.42;;;;;;;37.64;39.70;99276.59;5071695;28;20206;-72
2023/07/25 09:40:11;;;;;;;25.73;2.85;;;;;;;37.72;38.40;99348.84;5071557;28;20295;-71
2023/07/25 09:42:41;;;;;;;20.40;2.47;;;;;;;37.31;39.28;99320.00;5071664;28;20305;-72
2023/07/25 09:45:11;;;;;;;29.27;2.90;;;;;;;37.48;38.70;99341.53;5071619;28;20277;-72
2023/07/25 09:47:39;;;;;;;25.15;2.78;;;;;;;37.54;38.74;99335.44;5071661;28;20260;-72
2023/07/25 09:50:07;;;;;;;26.45;2.90;;;;;;;37.88;38.84;99334.47;5071429;28;20205;-72
2023/07/25 09:52:44;;;;;;;25.25;2.97;;;;;;;38.20;38.64;99321.78;5071363;28;20236;-71
2023/07/25 09:55:10;;;;;;;17.02;2.75;;;;;;;38.23;38.75;99320.59;5071413;28;20194;-72
2023/07/25 09:57:37;;;;;;;22.58;3.42;;;;;;;38.21;38.66;99315.34;5071267;28;20263;-72
2023/07/25 10:00:06;;;;;;;30.95;3.30;;;;;;;38.19;38.67;99319.25;5071002;28;20637;-72
2023/07/25 10:02:34;;;;;;;32.92;3.38;;;;;;;38.41;37.83;99318.56;5036251;28;20230;-72
2023/07/25 10:05:02;;;;;;;16.83;2.00;;;;;;;38.25;37.19;99320.41;5071287;28;20205;-72
2023/07/25 10:07:33;;;;;;;19.98;2.35;;;;;;;38.24;36.86;99310.59;5071527;28;20616;-72
2023/07/25 10:10:00;;;;;;;28.92;3.03;;;;;;;38.13;37.26;99301.81;5070989;28;20205;-72
2023/07/25 10:12:27;;;;;;;29.70;3.05;;;;;;;38.47;36.79;99303.47;5071062;28;20241;-72
2023/07/25 10:14:55;;;;;;;14.07;2.28;;;;;;;38.25;35.99;99248.13;5071008;28;20202;-71
2023/07/25 10:17:24;;;;;;;26.73;2.88;;;;;;;38.68;35.90;99304.56;5071311;28;20251;-71
2023/07/25 10:19:54;;;;;;;23.45;2.60;;;;;;;38.40;35.67;99305.16;5070738;28;20233;-70
2023/07/25 10:22:33;;;;;;;27.92;2.97;;;;;;;38.58;36.17;99295.81;5064110;28;20199;-71
2023/07/25 10:25:00;;;;;;;22.92;2.60;;;;;;;38.49;36.21;99298.72;5050824;28;20198;-71
2023/07/25 10:27:27;;;;;;;13.13;1.90;;;;;;;38.67;35.65;99294.75;5067635;28;20210;-71
2023/07/25 10:30:00;;;;;;;26.55;2.78;;;;;;;38.88;35.50;99287.94;5035492;28;20202;-71
2023/07/25 10:32:45;;;;;;;22.50;2.55;;;;;;;38.98;35.15;99291.25;5056306;28;20237;-71
2023/07/25 10:35:13;;;;;;;27.77;2.95;;;;;;;38.83;34.84;99290.31;5070435;28;20682;-71
2023/07/25 10:37:43;;;;;;;26.95;3.42;;;;;;;38.87;34.56;99288.94;5064302;28;20751;-71
2023/07/25 10:40:12;;;;;;;20.42;2.35;;;;;;;38.82;35.21;99267.78;5050517;28;20229;-71
2023/07/25 10:42:43;;;;;;;24.48;2.65;;;;;;;39.16;34.29;99284.56;5069001;28;20198;-71
2023/07/25 10:45:21;;;;;;;28.90;2.97;;;;;;;39.18;34.59;99273.50;5070247;28;20285;-72
2023/07/25 10:47:49;;;;;;;34.45;3.45;;;;;;;39.20;34.13;99270.63;5056210;28;20198;-71
2023/07/25 10:50:19;;;;;;;28.90;3.28;;;;;;;39.28;34.42;99271.41;5051932;28;20198;-72
2023/07/25 10:52:47;;;;;;;23.85;2.70;;;;;;;39.35;34.65;99263.44;5070489;28;20686;-71
2023/07/25 10:55:14;;;;;;;22.58;2.45;;;;;;;39.49;34.63;99260.75;5070445;28;20194;-71
2023/07/25 10:57:41;;;;;;;24.95;2.80;;;;;;;39.44;33.93;99267.75;5034978;28;20194;-71
2023/07/25 11:00:09;;;;;;;25.10;2.72;;;;;;;39.33;33.01;99260.88;5070194;28;20226;-71
2023/07/25 11:02:39;;;;;;;26.95;2.85;;;;;;;39.41;34.28;99260.84;5068365;28;20666;-71
2023/07/25 11:05:23;;;;;;;25.25;2.67;;;;;;;39.64;33.80;99245.38;5070226;28;20575;-71
2023/07/25 11:07:53;;;;;;;24.10;2.63;;;;;;;39.69;33.02;99243.97;5070132;28;20194;-71
2023/07/25 11:10:20;;;;;;;25.60;2.72;;;;;;;39.50;33.33;99248.88;5070208;28;20194;-73
2023/07/25 11:12:50;;;;;;;24.17;3.13;;;;;;;39.51;33.32;99244.28;5070509;28;20190;-72
2023/07/25 11:15:17;;;;;;;22.63;2.47;;;;;;;39.45;32.94;99237.75;5070448;28;20206;-72
2023/07/25 11:17:44;;;;;;;29.35;3.60;;;;;;;39.58;32.93;99243.38;5070333;28;20194;-72
2023/07/25 11:20:12;;;;;;;29.27;3.05;;;;;;;39.70;31.14;99229.41;5070178;28;20226;-72
2023/07/25 11:22:41;;;;;;;14.00;2.05;;;;;;;39.47;31.88;99224.81;5051604;28;20206;-72
2023/07/25 11:25:09;;;;;;;25.83;2.78;;;;;;;39.36;32.31;99221.69;5070443;28;20694;-71
2023/07/25 11:27:36;;;;;;;29.17;3.08;;;;;;;39.52;32.03;99216.97;5070108;28;20212;-73
2023/07/25 11:30:14;;;;;;;25.80;2.78;;;;;;;39.84;31.72;99225.88;5070014;28;20202;-73
2023/07/25 11:32:46;;;;;;;25.45;2.78;;;;;;;39.62;31.61;99209.44;5070114;28;20645;-70